createdAt,value
2023-05-25T00:02:15.704Z,9.00
2023-05-25T00:04:43.490Z,7.50
2023-05-25T00:07:11.234Z,9.30
2023-05-25T00:09:39.054Z,9.60
2023-05-25T00:12:07.583Z,7.50
2023-05-25T00:14:35.273Z,8.40
2023-05-25T00:17:04.548Z,7.70
2023-05-25T00:19:32.762Z,7.70
2023-05-25T00:22:02.566Z,7.00
2023-05-25T00:24:33.029Z,8.30
2023-05-25T00:27:01.034Z,7.00
2023-05-25T00:29:29.417Z,7.60
2023-05-25T00:31:57.208Z,7.70
2023-05-25T00:34:24.886Z,8.00
2023-05-25T00:36:53.032Z,7.20
2023-05-25T00:39:21.262Z,7.30
2023-05-25T00:41:49.563Z,7.80
2023-05-25T00:44:22.166Z,6.40
2023-05-25T00:46:52.380Z,7.00
2023-05-25T00:49:21.600Z,6.40
2023-05-25T00:51:49.268Z,7.50
2023-05-25T00:54:17.545Z,6.30
2023-05-25T00:56:47.697Z,7.40
2023-05-25T00:59:18.833Z,7.90
2023-05-25T01:01:46.800Z,7.40
2023-05-25T01:04:15.728Z,7.10
2023-05-25T01:06:44.825Z,6.50
2023-05-25T01:09:12.810Z,6.50
2023-05-25T01:11:42.644Z,6.70
2023-05-25T01:14:10.600Z,5.10
2023-05-25T01:16:38.339Z,6.10
2023-05-25T01:19:06.141Z,5.90
2023-05-25T01:21:48.342Z,7.10
2023-05-25T01:24:54.380Z,7.50
2023-05-25T01:27:41.398Z,6.50
2023-05-25T01:30:11.129Z,7.00
2023-05-25T01:32:39.385Z,7.40
2023-05-25T01:35:08.227Z,8.00
2023-05-25T01:37:40.081Z,7.40
2023-05-25T01:40:09.029Z,8.40
2023-05-25T01:42:36.846Z,8.30
2023-05-25T01:45:06.756Z,8.30
2023-05-25T01:47:49.757Z,8.70
2023-05-25T01:50:26.825Z,8.80
2023-05-25T01:53:03.788Z,9.70
2023-05-25T01:55:34.996Z,10.10
2023-05-25T01:58:02.890Z,8.80
2023-05-25T02:00:33.522Z,9.60
2023-05-25T02:03:04.286Z,8.80
2023-05-25T02:05:32.047Z,8.00
2023-05-25T02:07:59.725Z,8.20
2023-05-25T02:10:31.490Z,9.80
2023-05-25T02:12:59.157Z,10.80
2023-05-25T02:15:31.833Z,11.20
2023-05-25T02:18:01.063Z,10.10
2023-05-25T02:20:31.080Z,16.50
2023-05-25T02:22:58.953Z,19.80
2023-05-25T02:25:27.026Z,17.70
2023-05-25T02:27:56.107Z,18.70
2023-05-25T02:30:24.133Z,22.10
2023-05-25T02:32:56.859Z,16.80
2023-05-25T02:35:24.729Z,21.70
2023-05-25T02:37:52.962Z,18.90
2023-05-25T02:40:20.729Z,18.10
2023-05-25T02:42:48.510Z,24.10
2023-05-25T02:45:17.185Z,22.60
2023-05-25T02:47:45.484Z,21.20
2023-05-25T02:50:13.618Z,22.80
2023-05-25T02:52:44.835Z,23.20
2023-05-25T02:55:13.762Z,22.40
2023-05-25T02:57:42.363Z,17.10
2023-05-25T03:00:12.602Z,14.10
2023-05-25T03:02:40.686Z,13.20
2023-05-25T03:05:09.103Z,12.80
2023-05-25T03:07:37.277Z,11.70
2023-05-25T03:10:05.474Z,9.90
2023-05-25T03:12:33.253Z,11.20
2023-05-25T03:15:01.340Z,9.90
2023-05-25T03:17:29.179Z,10.90
2023-05-25T03:19:57.614Z,9.60
2023-05-25T03:22:27.448Z,11.10
2023-05-25T03:24:55.227Z,10.80
2023-05-25T03:27:23.052Z,11.60
2023-05-25T03:29:51.762Z,11.80
2023-05-25T03:32:20.024Z,12.20
2023-05-25T03:34:47.821Z,10.80
2023-05-25T03:37:16.283Z,10.90
2023-05-25T03:39:44.480Z,10.10
2023-05-25T03:42:12.426Z,9.50
2023-05-25T03:44:41.321Z,9.30
2023-05-25T03:47:09.389Z,10.10
2023-05-25T03:49:37.157Z,8.70
2023-05-25T03:52:06.485Z,7.60
2023-05-25T03:54:34.458Z,8.30
2023-05-25T03:57:10.205Z,7.80
2023-05-25T03:59:38.021Z,11.10
2023-05-25T04:02:05.805Z,10.40
2023-05-25T04:04:33.972Z,8.50
2023-05-25T04:07:01.861Z,7.90
2023-05-25T04:09:31.217Z,9.20
2023-05-25T04:11:59.175Z,9.10
2023-05-25T04:14:27.085Z,12.80
2023-05-25T04:16:54.805Z,24.00
2023-05-25T04:19:23.000Z,30.60
2023-05-25T04:21:50.853Z,31.40
2023-05-25T04:24:18.685Z,42.90
2023-05-25T04:26:47.081Z,44.90
2023-05-25T04:29:15.500Z,51.20
2023-05-25T04:31:57.012Z,64.30
2023-05-25T04:34:36.766Z,56.60
2023-05-25T04:37:09.943Z,49.00
2023-05-25T04:39:39.566Z,47.30
2023-05-25T04:42:08.004Z,47.10
2023-05-25T04:44:36.406Z,37.10
2023-05-25T04:47:07.427Z,35.90
2023-05-25T04:49:35.595Z,38.20
2023-05-25T04:52:03.787Z,32.70
2023-05-25T04:54:32.837Z,29.40
2023-05-25T04:57:03.333Z,27.80
2023-05-25T04:59:32.301Z,30.40
2023-05-25T05:02:00.495Z,33.80
2023-05-25T05:04:28.375Z,33.30
2023-05-25T05:06:58.823Z,30.30
2023-05-25T05:09:29.242Z,28.50
2023-05-25T05:11:59.011Z,20.80
2023-05-25T05:14:26.720Z,18.60
2023-05-25T05:16:54.471Z,17.00
2023-05-25T05:19:23.243Z,20.20
2023-05-25T05:21:51.641Z,18.30
2023-05-25T05:24:19.685Z,15.10
2023-05-25T05:26:56.380Z,14.90
2023-05-25T05:29:29.916Z,14.70
2023-05-25T05:31:58.507Z,11.80
2023-05-25T05:34:27.053Z,12.40
2023-05-25T05:36:58.531Z,12.50
2023-05-25T05:39:28.470Z,13.20
2023-05-25T05:41:56.652Z,13.90
2023-05-25T05:44:27.847Z,11.20
2023-05-25T05:47:01.400Z,12.60
2023-05-25T05:49:31.043Z,10.60
2023-05-25T05:51:59.975Z,9.90
2023-05-25T05:54:28.485Z,10.00
2023-05-25T05:56:59.165Z,9.00
2023-05-25T05:59:27.015Z,8.40
2023-05-25T06:01:54.921Z,11.50
2023-05-25T06:04:25.847Z,18.80
2023-05-25T06:06:53.866Z,12.50
2023-05-25T06:09:21.757Z,6.60
2023-05-25T06:11:49.861Z,9.60
2023-05-25T06:14:18.891Z,6.20
2023-05-25T06:16:47.412Z,5.80
2023-05-25T06:19:15.341Z,4.90
2023-05-25T06:21:43.249Z,6.20
2023-05-25T06:24:11.097Z,5.90
2023-05-25T06:26:38.940Z,4.30
2023-05-25T06:29:07.261Z,5.10
2023-05-25T06:31:35.168Z,4.30
2023-05-25T06:34:03.174Z,4.40
2023-05-25T06:36:32.154Z,8.20
2023-05-25T06:39:00.453Z,4.60
2023-05-25T06:41:28.294Z,5.40
2023-05-25T06:43:56.405Z,3.60
2023-05-25T06:46:33.106Z,3.10
2023-05-25T06:49:01.736Z,4.20
2023-05-25T06:51:29.563Z,3.40
2023-05-25T06:53:57.388Z,3.00
2023-05-25T06:56:25.177Z,3.50
2023-05-25T06:58:52.943Z,3.00
2023-05-25T07:01:21.854Z,3.20
2023-05-25T07:03:49.651Z,3.10
2023-05-25T07:06:17.856Z,3.30
2023-05-25T07:08:46.005Z,4.90
2023-05-25T07:11:14.556Z,2.90
2023-05-25T07:13:42.713Z,2.90
2023-05-25T07:16:10.522Z,3.50
2023-05-25T07:18:42.263Z,4.50
2023-05-25T07:21:11.265Z,3.30
2023-05-25T07:23:41.268Z,23.50
2023-05-25T07:26:09.199Z,4.80
2023-05-25T07:28:37.139Z,3.70
2023-05-25T07:31:05.414Z,3.10
2023-05-25T07:33:33.617Z,6.90
2023-05-25T07:36:01.451Z,3.50
2023-05-25T07:38:29.350Z,3.20
2023-05-25T07:40:57.174Z,3.70
2023-05-25T07:43:25.142Z,3.90
2023-05-25T07:45:53.024Z,4.10
2023-05-25T07:48:21.194Z,3.10
2023-05-25T07:50:48.980Z,4.90
2023-05-25T07:53:16.869Z,4.10
2023-05-25T07:55:44.889Z,3.90
2023-05-25T07:58:12.944Z,3.40
2023-05-25T08:00:40.895Z,3.90
2023-05-25T08:03:09.089Z,3.60
2023-05-25T08:05:37.129Z,3.20
2023-05-25T08:08:04.997Z,3.00
2023-05-25T08:10:32.761Z,3.20
2023-05-25T08:13:00.552Z,3.20
2023-05-25T08:15:28.539Z,3.00
2023-05-25T08:17:56.949Z,3.10
2023-05-25T08:20:26.054Z,2.60
2023-05-25T08:22:54.839Z,3.30
2023-05-25T08:25:22.729Z,3.20
2023-05-25T08:27:50.451Z,3.60
2023-05-25T08:30:18.312Z,3.30
2023-05-25T08:32:46.574Z,2.70
2023-05-25T08:35:14.638Z,3.40
2023-05-25T08:37:43.710Z,4.00
2023-05-25T08:40:16.490Z,2.80
2023-05-25T08:42:47.838Z,3.30
2023-05-25T08:45:33.000Z,2.80
2023-05-25T08:48:02.046Z,3.80
2023-05-25T08:50:30.110Z,3.20
2023-05-25T08:52:58.193Z,3.10
2023-05-25T08:55:28.066Z,3.30
2023-05-25T08:57:57.952Z,2.40
2023-05-25T09:00:28.297Z,2.40
2023-05-25T09:03:16.240Z,3.30
2023-05-25T09:05:44.500Z,3.50
2023-05-25T09:08:12.338Z,3.00
2023-05-25T09:10:42.685Z,3.40
2023-05-25T09:13:21.292Z,4.30
2023-05-25T09:15:50.875Z,4.10
2023-05-25T09:18:18.787Z,4.00
2023-05-25T09:20:47.677Z,6.70
2023-05-25T09:23:16.487Z,3.80
2023-05-25T09:25:44.460Z,3.80
2023-05-25T09:30:43.045Z,3.60
2023-05-25T09:33:14.600Z,3.40
2023-05-25T09:35:42.315Z,4.10
2023-05-25T09:38:10.294Z,3.70
2023-05-25T09:40:38.295Z,2.90
2023-05-25T09:43:06.003Z,3.60
2023-05-25T09:45:34.666Z,3.60
2023-05-25T09:48:03.446Z,3.30
2023-05-25T09:50:32.868Z,2.90
2023-05-25T09:53:01.174Z,3.80
2023-05-25T09:55:44.092Z,3.50
2023-05-25T09:58:16.956Z,2.80
2023-05-25T10:00:46.539Z,3.40
2023-05-25T10:03:16.185Z,2.60
2023-05-25T10:05:43.985Z,3.50
2023-05-25T10:08:11.862Z,3.00
2023-05-25T10:10:42.688Z,3.20
2023-05-25T10:13:11.187Z,3.40
2023-05-25T10:15:39.438Z,3.80
2023-05-25T10:18:07.161Z,3.20
2023-05-25T10:20:35.285Z,4.00
2023-05-25T10:23:21.549Z,3.50
2023-05-25T10:25:49.773Z,4.10
2023-05-25T10:28:28.761Z,4.00
2023-05-25T10:30:57.599Z,4.10
2023-05-25T10:33:26.128Z,3.40
2023-05-25T10:36:08.621Z,4.10
2023-05-25T10:38:44.972Z,4.70
2023-05-25T10:41:12.887Z,4.90
2023-05-25T10:43:41.452Z,4.30
2023-05-25T10:46:09.882Z,4.60
2023-05-25T10:48:52.021Z,3.70
2023-05-25T10:51:21.017Z,4.50
2023-05-25T10:53:59.573Z,4.20
2023-05-25T10:56:27.502Z,4.30
2023-05-25T10:58:55.392Z,4.60
2023-05-25T11:01:23.674Z,4.40
2023-05-25T11:04:15.287Z,3.40
2023-05-25T11:06:46.636Z,4.50
2023-05-25T11:09:25.709Z,12.90
2023-05-25T11:11:55.771Z,8.60
2023-05-25T11:14:24.190Z,5.80
2023-05-25T11:17:14.376Z,5.10
2023-05-25T11:19:43.625Z,4.30
2023-05-25T11:22:21.501Z,4.60
2023-05-25T11:24:49.408Z,4.50
2023-05-25T11:27:25.525Z,4.30
2023-05-25T11:29:53.841Z,4.60
2023-05-25T11:32:23.037Z,6.80
2023-05-25T11:34:54.507Z,4.60
2023-05-25T11:37:25.117Z,6.00
2023-05-25T11:39:53.407Z,62.00
2023-05-25T11:42:22.630Z,10.60
2023-05-25T11:44:50.595Z,7.20
2023-05-25T11:47:23.336Z,22.50
2023-05-25T11:49:51.279Z,37.90
2023-05-25T11:52:20.521Z,41.70
2023-05-25T11:54:48.300Z,37.40
2023-05-25T11:57:25.377Z,17.60
2023-05-25T12:00:00.520Z,16.10
2023-05-25T12:02:28.333Z,10.70
2023-05-25T12:05:01.995Z,9.10
2023-05-25T12:07:30.926Z,10.80
2023-05-25T12:10:06.361Z,7.00
2023-05-25T12:13:04.886Z,8.30
2023-05-25T12:15:32.733Z,6.30
2023-05-25T12:18:00.655Z,6.20
2023-05-25T12:22:56.083Z,6.60
2023-05-25T12:25:24.955Z,6.50
2023-05-25T12:28:15.387Z,6.70
2023-05-25T12:30:43.416Z,5.00
2023-05-25T12:33:13.385Z,5.40
2023-05-25T12:35:49.293Z,5.10
2023-05-25T12:38:18.774Z,4.40
2023-05-25T12:40:47.014Z,4.70
2023-05-25T12:43:17.186Z,4.80
2023-05-25T12:45:45.440Z,4.60
2023-05-25T12:48:13.451Z,4.70
2023-05-25T12:50:57.298Z,5.10
2023-05-25T12:53:25.591Z,3.50
2023-05-25T12:56:06.893Z,5.00
2023-05-25T12:58:34.749Z,5.00
2023-05-25T13:01:02.642Z,4.50
2023-05-25T13:03:31.087Z,4.00
2023-05-25T13:06:02.743Z,4.10
2023-05-25T13:08:30.784Z,4.30
2023-05-25T13:10:58.688Z,4.10
2023-05-25T13:13:27.199Z,3.70
2023-05-25T13:15:55.201Z,4.50
2023-05-25T13:18:22.949Z,4.90
2023-05-25T13:20:53.289Z,3.80
2023-05-25T13:23:23.176Z,3.80
2023-05-25T13:25:50.953Z,4.90
2023-05-25T13:28:18.806Z,3.10
2023-05-25T13:30:46.813Z,4.50
2023-05-25T13:33:14.872Z,4.30
2023-05-25T13:35:58.142Z,4.30
2023-05-25T13:38:26.069Z,4.30
2023-05-25T13:40:53.887Z,3.30
2023-05-25T13:43:22.157Z,3.90
2023-05-25T13:45:50.111Z,4.70
2023-05-25T13:48:18.715Z,3.40
2023-05-25T13:50:46.751Z,3.50
2023-05-25T13:53:14.698Z,4.60
2023-05-25T13:55:42.516Z,3.70
2023-05-25T13:58:10.213Z,4.20
2023-05-25T14:00:37.885Z,3.90
2023-05-25T14:03:06.733Z,3.30
2023-05-25T14:05:34.525Z,3.30
2023-05-25T14:08:05.037Z,3.70
2023-05-25T14:10:32.832Z,3.50
2023-05-25T14:13:00.690Z,4.20
2023-05-25T14:15:28.415Z,4.30
2023-05-25T14:17:57.535Z,3.50
2023-05-25T14:20:26.597Z,3.80
2023-05-25T14:22:54.508Z,4.30
2023-05-25T14:25:22.174Z,3.50
2023-05-25T14:27:49.862Z,4.00
2023-05-25T14:30:17.758Z,4.60
2023-05-25T14:32:45.662Z,4.00
2023-05-25T14:35:13.565Z,4.00
2023-05-25T14:37:42.152Z,4.70
2023-05-25T14:40:11.057Z,5.70
2023-05-25T14:42:38.872Z,5.10
2023-05-25T14:45:10.683Z,4.60
2023-05-25T14:47:39.275Z,5.30
2023-05-25T14:50:07.404Z,5.00
2023-05-25T14:52:36.739Z,4.40
2023-05-25T14:55:04.593Z,5.90
2023-05-25T14:57:32.389Z,4.50
2023-05-25T15:00:00.320Z,4.00
2023-05-25T15:02:28.633Z,4.40
2023-05-25T15:04:56.538Z,4.30
2023-05-25T15:07:24.288Z,5.80
2023-05-25T15:09:52.037Z,5.50
2023-05-25T15:12:20.260Z,4.90
2023-05-25T15:14:48.078Z,4.80
2023-05-25T15:17:15.736Z,4.10
2023-05-25T15:19:43.408Z,4.20
2023-05-25T15:22:11.141Z,4.00
2023-05-25T15:24:38.901Z,2.80
2023-05-25T15:27:06.777Z,2.60
2023-05-25T15:29:34.398Z,3.10
2023-05-25T15:32:02.121Z,3.00
2023-05-25T15:34:30.046Z,2.80
2023-05-25T15:36:57.712Z,3.20
2023-05-25T15:39:25.469Z,3.70
2023-05-25T15:41:53.216Z,2.80
2023-05-25T15:44:21.538Z,2.80
2023-05-25T15:46:49.191Z,3.60
2023-05-25T15:49:16.877Z,3.40
2023-05-25T15:51:44.809Z,6.40
2023-05-25T15:54:14.713Z,10.80
2023-05-25T15:56:42.681Z,14.30
2023-05-25T15:59:12.631Z,14.60
2023-05-25T16:01:40.730Z,10.30
2023-05-25T16:04:08.718Z,7.10
2023-05-25T16:06:37.138Z,5.10
2023-05-25T16:09:04.878Z,3.80
2023-05-25T16:11:34.334Z,3.30
2023-05-25T16:14:02.214Z,3.10
2023-05-25T16:16:30.065Z,2.70
2023-05-25T16:18:57.822Z,4.10
2023-05-25T16:21:26.136Z,3.50
2023-05-25T16:23:53.932Z,4.50
2023-05-25T16:26:22.801Z,4.40
2023-05-25T16:28:50.498Z,5.10
2023-05-25T16:31:18.387Z,5.00
2023-05-25T16:33:46.389Z,5.80
2023-05-25T16:36:14.403Z,5.50
2023-05-25T16:38:42.132Z,6.70
2023-05-25T16:41:09.836Z,5.80
2023-05-25T16:43:37.540Z,5.20
2023-05-25T16:46:05.986Z,6.60
2023-05-25T16:48:33.817Z,10.30
2023-05-25T16:51:15.379Z,10.60
2023-05-25T16:53:43.941Z,11.90
2023-05-25T16:56:12.045Z,9.40
2023-05-25T16:58:40.029Z,5.80
2023-05-25T17:01:08.270Z,5.40
2023-05-25T17:03:37.123Z,5.30
2023-05-25T17:06:05.694Z,4.70
2023-05-25T17:08:33.717Z,5.60
2023-05-25T17:11:01.651Z,5.80
2023-05-25T17:13:29.575Z,6.20
2023-05-25T17:15:57.586Z,15.50
2023-05-25T17:18:27.035Z,17.70
2023-05-25T17:20:55.386Z,16.60
2023-05-25T17:23:23.228Z,13.90
2023-05-25T17:25:51.986Z,13.20
2023-05-25T17:28:19.879Z,12.00
2023-05-25T17:30:48.627Z,8.80
2023-05-25T17:33:16.768Z,8.20
2023-05-25T17:35:48.129Z,8.30
2023-05-25T17:38:16.212Z,8.70
2023-05-25T17:40:43.979Z,8.30
2023-05-25T17:43:11.900Z,8.30
2023-05-25T17:45:39.731Z,7.80
2023-05-25T17:48:07.665Z,7.10
2023-05-25T17:50:35.686Z,6.60
2023-05-25T17:53:04.447Z,7.30
2023-05-25T17:55:32.320Z,11.10
2023-05-25T17:58:00.962Z,11.70
2023-05-25T18:00:31.023Z,12.00
2023-05-25T18:02:59.063Z,14.00
2023-05-25T18:05:27.007Z,15.10
2023-05-25T18:07:54.851Z,16.00
2023-05-25T18:10:23.111Z,14.10
2023-05-25T18:12:52.479Z,11.80
2023-05-25T18:15:20.526Z,11.20
2023-05-25T18:17:48.433Z,9.70
2023-05-25T18:20:16.544Z,10.60
2023-05-25T18:22:44.424Z,9.90
2023-05-25T18:25:12.307Z,7.80
2023-05-25T18:27:40.549Z,8.00
2023-05-25T18:30:09.950Z,6.60
2023-05-25T18:32:37.927Z,7.50
2023-05-25T18:35:06.988Z,7.30
2023-05-25T18:37:36.057Z,8.00
2023-05-25T18:40:04.388Z,7.60
2023-05-25T18:42:32.253Z,6.60
2023-05-25T18:45:00.063Z,5.70
2023-05-25T18:47:27.940Z,5.10
2023-05-25T18:49:55.997Z,5.30
2023-05-25T18:52:23.864Z,5.40
2023-05-25T18:54:51.961Z,5.00
2023-05-25T18:57:20.033Z,4.70
2023-05-25T18:59:47.910Z,5.50
2023-05-25T19:02:15.808Z,5.10
2023-05-25T19:04:43.820Z,5.10
2023-05-25T19:07:12.361Z,5.40
2023-05-25T19:09:40.604Z,5.60
2023-05-25T19:12:09.077Z,5.90
2023-05-25T19:14:36.924Z,5.00
2023-05-25T19:17:04.833Z,5.30
2023-05-25T19:19:32.605Z,5.00
2023-05-25T19:22:00.571Z,5.70
2023-05-25T19:24:28.379Z,5.00
2023-05-25T19:26:56.242Z,5.50
2023-05-25T19:29:24.209Z,5.80
2023-05-25T19:31:52.403Z,4.70
2023-05-25T19:34:21.257Z,5.40
2023-05-25T19:36:59.748Z,5.00
2023-05-25T19:39:32.205Z,5.70
2023-05-25T19:42:00.167Z,5.80
2023-05-25T19:44:32.164Z,5.50
2023-05-25T19:47:01.556Z,4.70
2023-05-25T19:49:31.361Z,4.90
2023-05-25T19:51:59.767Z,4.40
2023-05-25T19:54:27.582Z,4.50
2023-05-25T19:56:55.377Z,4.90
2023-05-25T19:59:28.123Z,4.70
2023-05-25T20:01:57.044Z,5.40
2023-05-25T20:04:25.590Z,5.50
2023-05-25T20:06:53.943Z,4.40
2023-05-25T20:09:30.256Z,5.30
2023-05-25T20:11:58.817Z,5.50
2023-05-25T20:14:26.859Z,5.80
2023-05-25T20:16:56.222Z,6.30
2023-05-25T20:19:24.044Z,5.60
2023-05-25T20:21:52.264Z,6.40
2023-05-25T20:24:22.288Z,5.50
2023-05-25T20:26:50.366Z,5.90
2023-05-25T20:29:18.192Z,6.60
2023-05-25T20:31:46.039Z,6.30
2023-05-25T20:34:13.946Z,6.40
2023-05-25T20:36:41.755Z,6.80
2023-05-25T20:39:09.663Z,5.70
2023-05-25T20:41:37.465Z,5.40
2023-05-25T20:44:09.061Z,6.30
2023-05-25T20:46:37.266Z,7.00
2023-05-25T20:49:05.109Z,5.80
2023-05-25T20:51:33.014Z,7.20
2023-05-25T20:54:01.042Z,6.80
2023-05-25T20:56:29.209Z,7.10
2023-05-25T20:58:57.685Z,7.50
2023-05-25T21:01:25.687Z,6.90
2023-05-25T21:03:53.597Z,6.10
2023-05-25T21:06:22.918Z,6.40
2023-05-25T21:08:50.814Z,7.10
2023-05-25T21:11:18.438Z,7.30
2023-05-25T21:13:46.376Z,7.70
2023-05-25T21:16:14.168Z,8.50
2023-05-25T21:18:42.250Z,9.50
2023-05-25T21:21:11.457Z,9.30
2023-05-25T21:23:39.296Z,10.00
2023-05-25T21:26:07.245Z,10.60
2023-05-25T21:28:35.016Z,10.80
2023-05-25T21:31:03.406Z,11.20
2023-05-25T21:33:36.096Z,11.90
2023-05-25T21:36:04.156Z,12.40
2023-05-25T21:38:31.993Z,12.50
2023-05-25T21:40:59.941Z,11.30
2023-05-25T21:43:27.693Z,11.40
2023-05-25T21:45:55.512Z,12.60
2023-05-25T21:48:23.461Z,13.30
2023-05-25T21:50:51.996Z,14.20
2023-05-25T21:53:20.296Z,12.90
2023-05-25T21:55:48.216Z,12.50
2023-05-25T21:58:17.942Z,13.00
2023-05-25T22:00:45.880Z,12.20
2023-05-25T22:03:14.721Z,13.00
2023-05-25T22:05:43.033Z,13.20
2023-05-25T22:08:11.068Z,12.80
2023-05-25T22:10:39.003Z,12.60
2023-05-25T22:13:07.518Z,13.00
2023-05-25T22:15:35.602Z,13.20
2023-05-25T22:18:03.495Z,13.10
2023-05-25T22:20:31.367Z,12.60
2023-05-25T22:22:59.806Z,12.50
2023-05-25T22:25:27.706Z,13.50
2023-05-25T22:27:55.623Z,13.00
2023-05-25T22:30:23.437Z,11.60
2023-05-25T22:32:51.387Z,12.00
2023-05-25T22:35:19.214Z,13.30
2023-05-25T22:37:46.980Z,13.30
2023-05-25T22:40:15.294Z,13.00
2023-05-25T22:42:50.070Z,12.70
2023-05-25T22:45:18.562Z,12.90
2023-05-25T22:47:46.533Z,13.50
2023-05-25T22:50:14.385Z,12.60
2023-05-25T22:52:42.194Z,12.80
2023-05-25T22:55:10.288Z,13.70
2023-05-25T22:57:38.317Z,14.30
2023-05-25T23:00:07.195Z,12.90
2023-05-25T23:02:35.090Z,12.70
2023-05-25T23:05:03.050Z,13.60
2023-05-25T23:07:31.652Z,13.00
2023-05-25T23:09:59.627Z,13.30
2023-05-25T23:12:27.413Z,13.10
2023-05-25T23:14:56.881Z,12.80
2023-05-25T23:17:24.732Z,14.30
2023-05-25T23:19:53.887Z,14.60
2023-05-25T23:22:21.748Z,17.10
2023-05-25T23:24:49.554Z,18.20
2023-05-25T23:27:17.328Z,17.80
2023-05-25T23:29:45.130Z,18.10
2023-05-25T23:32:13.038Z,17.70
2023-05-25T23:34:40.868Z,17.60
2023-05-25T23:37:09.201Z,18.80
2023-05-25T23:39:36.982Z,16.70
2023-05-25T23:42:04.898Z,17.70
2023-05-25T23:44:32.684Z,15.30
2023-05-25T23:47:00.785Z,15.70
2023-05-25T23:49:28.636Z,17.90
2023-05-25T23:51:56.300Z,15.50
2023-05-25T23:54:24.170Z,16.60
2023-05-25T23:56:52.049Z,17.70
2023-05-25T23:59:19.802Z,17.90
